^^
Grace C. Lehan Memorial Weather Station Historical Data
Daily Summary for March 5, 2021 Units:  English    Metric   Both
Daily Weekly Monthly Yearly
  High: Low: Average:
Temperature: 61.4 °F 53.5 °F 57.1 °F
Dew Point: 57.8 °F 52.7 °F 55.2 °F
Humidity: 98.4% 86% 94%
Wind Speed: 2.3mph 0mph 0.3mph
Wind Gust: 10mph - -
Wind- - SE
Pressure: 30.33 in 30.10 in -
Precipitation: 0.10 in    
 
 
Tabular Data for March 5, 2021
Time Temperature Dew Point Pressure Wind Wind Speed Wind Gust Humidity Rainfall Rate (Hourly) solar
00:09 56.5 °F 55.6 °F 30.10 in North 0.7 mph 4 mph 97% 0.32 in 0 W/m2
00:14 56.4 °F 55.6 °F 30.10 in North 0.3 mph 4 mph 97% 0.32 in 0 W/m2
00:19 56.4 °F 55.6 °F 30.10 in North 0.3 mph 6 mph 97% 0.33 in 0 W/m2
00:24 56.4 °F 55.6 °F 30.10 in North 0.4 mph 6 mph 97% 0.33 in 0 W/m2
00:29 56.4 °F 55.6 °F 30.10 in NNE 0.6 mph 6 mph 97% 0.33 in 0 W/m2
00:34 56.5 °F 55.6 °F 30.10 in NE 0.3 mph 6 mph 97% 0.33 in 0 W/m2
00:39 56.5 °F 55.6 °F 30.10 in ENE 0.1 mph 4 mph 97% 0.14 in 0 W/m2
00:44 56.4 °F 55.6 °F 30.10 in NNE 0.4 mph 4 mph 97% 0.15 in 0 W/m2
00:49 56.4 °F 55.6 °F 30.10 in NE 0.1 mph 4 mph 97% 0.16 in 0 W/m2
00:54 56.4 °F 55.6 °F 30.10 in North 0.3 mph 4 mph 97% 0.16 in 0 W/m2
00:59 56.4 °F 55.6 °F 30.10 in NNW 0.6 mph 7 mph 97% 0.17 in 0 W/m2
01:04 56.4 °F 55.6 °F 30.10 in NNE 0.5 mph 7 mph 97% 0.17 in 0 W/m2
01:09 56.4 °F 55.6 °F 30.11 in Calm   5 mph 97% 0.06 in 0 W/m2
01:14 56.4 °F 55.5 °F 30.11 in Calm   5 mph 97% 0.06 in 0 W/m2
01:19 56.3 °F 55.5 °F 30.11 in Calm   5 mph 97% 0.06 in 0 W/m2
01:24 56.2 °F 55.4 °F 30.11 in NE 0.4 mph 5 mph 97% 0.06 in 0 W/m2
01:29 56.2 °F 55.4 °F 30.11 in Calm   5 mph 97% 0.06 in 0 W/m2
01:34 56.1 °F 55.3 °F 30.11 in North 0.5 mph 5 mph 97% 0.06 in 0 W/m2
01:39 56.1 °F 55.2 °F 30.11 in North 0.5 mph 7 mph 97% 0.06 in 0 W/m2
01:44 56 °F 55.1 °F 30.11 in NNE 0.2 mph 7 mph 97% 0.06 in 0 W/m2
01:49 55.9 °F 55.1 °F 30.12 in NNE 0.2 mph 7 mph 97% 0.06 in 0 W/m2
01:54 55.8 °F 55 °F 30.12 in North 0.6 mph 7 mph 97% 0.06 in 0 W/m2
01:59 55.8 °F 55 °F 30.12 in NE 0.2 mph 7 mph 97% 0.06 in 0 W/m2
02:04 55.8 °F 55 °F 30.12 in Calm   7 mph 97% 0.06 in 0 W/m2
02:09 55.7 °F 54.9 °F 30.12 in Calm   2 mph 97% 0.00 in 0 W/m2
02:14 55.7 °F 54.9 °F 30.12 in North 0.3 mph 6 mph 97% 0.00 in 0 W/m2
02:19 55.6 °F 54.8 °F 30.12 in Calm   6 mph 97% 0.00 in 0 W/m2
02:24 55.5 °F 54.7 °F 30.12 in NNE 0.4 mph 6 mph 97% 0.00 in 0 W/m2
02:29 55.5 °F 54.6 °F 30.12 in ENE 1 mph 7 mph 97% 0.00 in 0 W/m2
02:34 55.3 °F 54.5 °F 30.12 in NNE 0.2 mph 7 mph 97% 0.00 in 0 W/m2
02:39 55.3 °F 54.4 °F 30.12 in NNE 0.8 mph 6 mph 97% 0.00 in 0 W/m2
02:44 55.2 °F 54.4 °F 30.12 in NNE 0.4 mph 6 mph 97% 0.00 in 0 W/m2
02:49 55.1 °F 54.3 °F 30.12 in NW 0.4 mph 6 mph 97% 0.00 in 0 W/m2
02:54 55.1 °F 54.3 °F 30.12 in North 0.1 mph 6 mph 97% 0.01 in 0 W/m2
02:59 55 °F 54.2 °F 30.12 in ESE 0.5 mph 6 mph 97% 0.01 in 0 W/m2
03:04 55 °F 54.2 °F 30.12 in Calm   6 mph 97% 0.01 in 0 W/m2
03:09 55 °F 54.1 °F 30.12 in East 0.4 mph 4 mph 97% 0.01 in 0 W/m2
03:14 54.9 °F 54 °F 30.12 in NE 0.3 mph 4 mph 97% 0.01 in 0 W/m2
03:19 54.8 °F 54 °F 30.12 in North 0.2 mph 4 mph 97% 0.01 in 0 W/m2
03:24 54.8 °F 54 °F 30.12 in ENE 0.6 mph 6 mph 97% 0.01 in 0 W/m2
03:29 54.7 °F 53.9 °F 30.12 in ENE 0.7 mph 6 mph 97% 0.01 in 0 W/m2
03:34 54.6 °F 53.8 °F 30.12 in NNE 0.2 mph 6 mph 97% 0.01 in 0 W/m2
03:39 54.6 °F 53.7 °F 30.12 in NW 1.2 mph 7 mph 97% 0.01 in 0 W/m2
03:44 54.5 °F 53.7 °F 30.12 in NW 0.5 mph 7 mph 97% 0.01 in 0 W/m2
03:49 54.5 °F 53.6 °F 30.13 in NNW 0.3 mph 7 mph 97% 0.01 in 0 W/m2
03:54 54.4 °F 53.6 °F 30.13 in North 0.4 mph 7 mph 97% 0.01 in 0 W/m2
03:59 54.4 °F 53.6 °F 30.13 in NNE 0.2 mph 7 mph 97% 0.01 in 0 W/m2
04:00 54.4 °F 53.6 °F 30.13 in Calm   7 mph 97% 0.01 in 0 W/m2
04:09 54.3 °F 53.4 °F 30.13 in NNE 0.6 mph 4 mph 97% 0.00 in 0 W/m2
04:14 54.2 °F 53.4 °F 30.13 in North 0.7 mph 6 mph 97% 0.00 in 0 W/m2
04:19 54.1 °F 53.3 °F 30.14 in North 0.3 mph 6 mph 97% 0.00 in 0 W/m2
04:24 54.1 °F 53.3 °F 30.14 in North 0.5 mph 6 mph 97% 0.00 in 0 W/m2
04:29 54 °F 53.2 °F 30.15 in North 0.3 mph 7 mph 97% 0.00 in 0 W/m2
04:34 54 °F 53.2 °F 30.15 in NNE 0.7 mph 7 mph 97% 0.00 in 0 W/m2
04:39 54 °F 53.2 °F 30.14 in NNE 0.1 mph 4 mph 97% 0.00 in 0 W/m2
04:44 54 °F 53.2 °F 30.14 in North 0.5 mph 7 mph 97% 0.00 in 0 W/m2
04:49 53.9 °F 53.1 °F 30.14 in Calm   7 mph 97% 0.00 in 0 W/m2
04:54 53.9 °F 53.1 °F 30.14 in NE 0.3 mph 7 mph 97% 0.00 in 0 W/m2
04:59 53.8 °F 53 °F 30.14 in Calm   7 mph 97% 0.00 in 0 W/m2
05:04 53.8 °F 53 °F 30.14 in Calm   7 mph 97% 0.00 in 0 W/m2
05:09 53.8 °F 53 °F 30.14 in North 1.2 mph 7 mph 97% 0.00 in 0 W/m2
05:14 53.7 °F 52.9 °F 30.14 in North 0.8 mph 7 mph 97% 0.00 in 0 W/m2
05:19 53.7 °F 52.9 °F 30.14 in North 0.8 mph 7 mph 97% 0.00 in 0 W/m2
05:24 53.6 °F 52.8 °F 30.14 in NNE 1 mph 7 mph 97% 0.00 in 0 W/m2
05:29 53.5 °F 52.7 °F 30.14 in ENE 0.7 mph 7 mph 97% 0.00 in 0 W/m2
05:34 53.5 °F 52.7 °F 30.13 in ENE 0.1 mph 7 mph 97% 0.00 in 0 W/m2
05:39 53.5 °F 52.7 °F 30.14 in Calm   2 mph 97% 0.00 in 0 W/m2
05:44 53.5 °F 52.7 °F 30.15 in Calm   2 mph 97% 0.00 in 0 W/m2
05:49 53.5 °F 52.7 °F 30.15 in North 0.4 mph 7 mph 97% 0.00 in 0 W/m2
05:54 53.6 °F 52.7 °F 30.15 in North 0.1 mph 7 mph 97% 0.00 in 0 W/m2
05:59 53.6 °F 52.8 °F 30.16 in Calm   7 mph 97% 0.00 in 0 W/m2
06:04 53.6 °F 52.8 °F 30.16 in Calm   7 mph 97% 0.00 in 0 W/m2
06:09 53.7 °F 52.8 °F 30.16 in Calm     97% 0.00 in 0 W/m2
06:14 53.7 °F 52.9 °F 30.16 in Calm     97% 0.00 in 0 W/m2
06:19 53.8 °F 53 °F 30.16 in Calm     97% 0.00 in 0 W/m2
06:24 53.8 °F 53 °F 30.17 in Calm     97% 0.00 in 0 W/m2
06:29 53.7 °F 52.9 °F 30.17 in Calm   1 mph 97% 0.00 in 0 W/m2
06:34 53.7 °F 52.9 °F 30.17 in Calm   1 mph 97% 0.00 in 0 W/m2
06:39 53.7 °F 52.9 °F 30.16 in NNE 0.1 mph 2 mph 97% 0.00 in 0 W/m2
06:44 53.7 °F 52.9 °F 30.17 in Calm   2 mph 97% 0.00 in 0 W/m2
06:49 53.7 °F 52.9 °F 30.17 in NNE 0.4 mph 6 mph 97% 0.00 in 0 W/m2
06:54 53.7 °F 52.9 °F 30.18 in Calm   6 mph 97% 0.00 in 0 W/m2
06:59 53.8 °F 52.9 °F 30.18 in NNE 0.2 mph 6 mph 97% 0.00 in 0 W/m2
07:04 53.8 °F 53 °F 30.18 in NNE 0.1 mph 6 mph 97% 0.00 in 0 W/m2
07:09 53.7 °F 52.9 °F 30.18 in Calm   3 mph 97% 0.00 in 7 W/m2
07:14 53.8 °F 52.9 °F 30.18 in ENE 0.1 mph 4 mph 97% 0.00 in 7 W/m2
07:19 53.7 °F 52.9 °F 30.18 in NNW 0.6 mph 7 mph 97% 0.00 in 7 W/m2
07:24 53.7 °F 52.9 °F 30.18 in Calm   7 mph 97% 0.00 in 7 W/m2
07:29 53.7 °F 52.9 °F 30.18 in NNE 0.5 mph 7 mph 97% 0.00 in 11 W/m2
07:34 53.7 °F 52.9 °F 30.19 in Calm   7 mph 97% 0.00 in 16 W/m2
07:39 53.7 °F 52.9 °F 30.19 in NNE 0.1 mph 3 mph 97% 0.00 in 16 W/m2
07:44 53.7 °F 52.9 °F 30.19 in NE 0.4 mph 4 mph 97% 0.00 in 16 W/m2
07:49 53.7 °F 52.9 °F 30.19 in Calm   4 mph 97% 0.00 in 16 W/m2
07:54 53.8 °F 52.9 °F 30.20 in NE 0.1 mph 4 mph 97% 0.00 in 16 W/m2
07:59 53.7 °F 52.9 °F 30.20 in Calm   4 mph 97% 0.00 in 19 W/m2
08:00 53.7 °F 52.9 °F 30.20 in Calm   4 mph 97% 0.00 in 19 W/m2
08:09 53.6 °F 52.8 °F 30.20 in NE 0.1 mph 2 mph 97% 0.00 in 26 W/m2
08:14 53.6 °F 52.8 °F 30.20 in East 0.1 mph 3 mph 97% 0.00 in 26 W/m2
08:19 53.6 °F 52.8 °F 30.20 in NE 0.3 mph 3 mph 97% 0.00 in 35 W/m2
08:24 53.7 °F 52.9 °F 30.20 in North 0.8 mph 6 mph 97% 0.00 in 56 W/m2
08:29 53.7 °F 52.9 °F 30.20 in North 0.5 mph 6 mph 97% 0.00 in 56 W/m2
08:34 53.9 °F 53 °F 30.21 in Calm   6 mph 97% 0.00 in 54 W/m2
08:39 53.9 °F 53.1 °F 30.21 in NNE 0.5 mph 5 mph 97% 0.00 in 44 W/m2
08:44 53.9 °F 53.1 °F 30.21 in NNE 0.5 mph 5 mph 97% 0.00 in 53 W/m2
08:49 54 °F 53.2 °F 30.21 in NNE 0.2 mph 5 mph 97% 0.00 in 67 W/m2
08:54 54 °F 53.2 °F 30.20 in NNE 0.4 mph 5 mph 97% 0.00 in 79 W/m2
08:59 54.1 °F 53.3 °F 30.21 in NNW 0.2 mph 5 mph 97% 0.00 in 77 W/m2
09:04 54.3 °F 53.5 °F 30.22 in NW 0.2 mph 5 mph 97% 0.00 in 84 W/m2
09:09 54.4 °F 53.6 °F 30.22 in NW 0.3 mph 5 mph 97% 0.00 in 79 W/m2
09:14 54.5 °F 53.8 °F 30.22 in NNW 0.4 mph 5 mph 97.5% 0.00 in 62 W/m2
09:19 54.5 °F 53.7 °F 30.22 in NW 0.7 mph 9 mph 97% 0.00 in 62 W/m2
09:24 54.5 °F 53.8 °F 30.22 in NNW 0.2 mph 9 mph 97.5% 0.00 in 54 W/m2
09:29 54.5 °F 54.1 °F 30.22 in NNW 0.5 mph 9 mph 98.4% 0.00 in 72 W/m2
09:34 54.6 °F 53.8 °F 30.22 in NE 0.1 mph 9 mph 97% 0.00 in 104 W/m2
09:39 54.8 °F 53.9 °F 30.22 in NE 0.4 mph 4 mph 97% 0.00 in 118 W/m2
09:44 55 °F 54.1 °F 30.22 in ENE 0.6 mph 5 mph 97% 0.00 in 137 W/m2
09:49 55 °F 54.2 °F 30.22 in ENE 0.9 mph 7 mph 97% 0.00 in 153 W/m2
09:54 54.9 °F 54.1 °F 30.22 in NE 1.1 mph 7 mph 97% 0.00 in 165 W/m2
09:59 55 °F 54.2 °F 30.23 in NNW 0.2 mph 7 mph 97% 0.00 in 134 W/m2
10:04 55.1 °F 54.3 °F 30.23 in East 0.9 mph 7 mph 97% 0.00 in 109 W/m2
10:09 54.9 °F 54.1 °F 30.23 in SSW 0.2 mph 6 mph 97% 0.00 in 139 W/m2
10:14 55 °F 54.1 °F 30.23 in NNE 0.7 mph 6 mph 97% 0.00 in 163 W/m2
10:19 55.1 °F 54.3 °F 30.23 in NNE 0.5 mph 6 mph 97% 0.00 in 153 W/m2
10:24 55.3 °F 54.5 °F 30.23 in NE 0.1 mph 6 mph 97% 0.00 in 172 W/m2
10:29 55.4 °F 54.6 °F 30.23 in NE 0.7 mph 6 mph 97% 0.00 in 116 W/m2
10:34 55.4 °F 54.6 °F 30.23 in ENE 1.1 mph 6 mph 97% 0.00 in 167 W/m2
10:39 55.4 °F 54.6 °F 30.23 in ENE 0.8 mph 5 mph 97% 0.00 in 146 W/m2
10:44 55.4 °F 54.6 °F 30.23 in Calm   5 mph 97% 0.00 in 120 W/m2
10:49 55.6 °F 54.8 °F 30.23 in Calm   5 mph 97% 0.00 in 97 W/m2
10:54 55.9 °F 55.1 °F 30.24 in Calm   5 mph 97% 0.00 in 163 W/m2
10:59 56.2 °F 55.4 °F 30.24 in Calm   5 mph 97% 0.00 in 163 W/m2
11:04 56.4 °F 55.6 °F 30.23 in ENE 0.2 mph 5 mph 97% 0.00 in 148 W/m2
11:09 56.5 °F 55.7 °F 30.24 in East 0.5 mph 4 mph 97% 0.00 in 227 W/m2
11:14 56.3 °F 55.5 °F 30.24 in ENE 2 mph 10 mph 97% 0.00 in 253 W/m2
11:19 56.5 °F 55.5 °F 30.23 in East 0.6 mph 10 mph 96.3% 0.00 in 251 W/m2
11:24 56.8 °F 55.7 °F 30.23 in ENE 1 mph 10 mph 96% 0.00 in 171 W/m2
11:29 57 °F 55.8 °F 30.24 in ENE 0.5 mph 10 mph 95.5% 0.00 in 120 W/m2
11:34 57.3 °F 55.8 °F 30.24 in NNW 0.3 mph 10 mph 95% 0.00 in 121 W/m2
11:39 57.4 °F 56 °F 30.24 in NNW 0.2 mph 4 mph 95% 0.00 in 142 W/m2
11:44 57.7 °F 56.2 °F 30.24 in NNW 0.8 mph 6 mph 94.7% 0.00 in 135 W/m2
11:49 57.9 °F 56.1 °F 30.24 in NNE 0.4 mph 6 mph 94% 0.00 in 151 W/m2
11:54 58.1 °F 56.4 °F 30.24 in NNW 0.7 mph 7 mph 94% 0.00 in 134 W/m2
11:59 58.3 °F 56.5 °F 30.24 in NW 0.4 mph 7 mph 93.6% 0.00 in 158 W/m2
12:09 58.5 °F 56.5 °F 30.24 in NNW 0.3 mph 3 mph 93% 0.00 in 156 W/m2
12:14 58.6 °F 56.4 °F 30.24 in NE 0.5 mph 4 mph 92.2% 0.00 in 197 W/m2
12:19 58.8 °F 56.5 °F 30.24 in NE 0.2 mph 4 mph 92% 0.00 in 193 W/m2
12:24 59 °F 56.7 °F 30.24 in NE 0.3 mph 4 mph 92% 0.00 in 244 W/m2
12:29 59.2 °F 56.8 °F 30.24 in ENE 0.3 mph 4 mph 91.6% 0.00 in 264 W/m2
12:34 59.4 °F 56.8 °F 30.24 in ENE 0.4 mph 4 mph 91% 0.00 in 223 W/m2
12:39 59.6 °F 56.8 °F 30.23 in NNE 0.1 mph 4 mph 90.3% 0.00 in 221 W/m2
12:44 59.8 °F 56.8 °F 30.23 in NE 0.8 mph 4 mph 89.7% 0.00 in 214 W/m2
12:49 59.9 °F 56.6 °F 30.23 in NNW 0.6 mph 4 mph 88.8% 0.00 in 169 W/m2
12:54 60 °F 56.8 °F 30.23 in NE 0.3 mph 4 mph 89.2% 0.00 in 220 W/m2
12:59 60.2 °F 56.9 °F 30.22 in ENE 0.7 mph 5 mph 88.9% 0.00 in 225 W/m2
13:04 60.2 °F 56.5 °F 30.22 in ENE 0.5 mph 5 mph 87.4% 0.00 in 199 W/m2
13:09 60.3 °F 56.6 °F 30.22 in North 0.5 mph 4 mph 87.7% 0.00 in 172 W/m2
13:14 60.4 °F 56.7 °F 30.23 in ENE 2.3 mph 9 mph 87.6% 0.00 in 176 W/m2
13:19 60.3 °F 56.4 °F 30.22 in ENE 0.1 mph 9 mph 87% 0.00 in 179 W/m2
13:24 60.3 °F 56.5 °F 30.22 in NE 1.3 mph 9 mph 87% 0.00 in 195 W/m2
13:29 60.5 °F 56.8 °F 30.22 in NNW 0.7 mph 9 mph 87.8% 0.00 in 190 W/m2
13:34 60.7 °F 56.9 °F 30.22 in NE 0.6 mph 9 mph 87.4% 0.00 in 179 W/m2
13:39 60.8 °F 56.9 °F 30.22 in ENE 0.8 mph 4 mph 87.1% 0.00 in 171 W/m2
13:44 60.8 °F 56.5 °F 30.22 in ENE 0.1 mph 4 mph 86% 0.00 in 139 W/m2
13:49 60.8 °F 56.7 °F 30.22 in ENE 0.4 mph 4 mph 86.2% 0.00 in 171 W/m2
13:54 60.9 °F 56.9 °F 30.22 in Calm   4 mph 86.7% 0.00 in 153 W/m2
13:59 61 °F 57.1 °F 30.22 in NW 0.4 mph 4 mph 86.8% 0.00 in 120 W/m2
14:04 61.2 °F 57.3 °F 30.22 in North 0.4 mph 4 mph 87% 0.00 in 98 W/m2
14:09 61.1 °F 57.1 °F 30.22 in North 0.4 mph 4 mph 86.5% 0.00 in 100 W/m2
14:14 61.1 °F 57.1 °F 30.22 in North 0.5 mph 5 mph 86.8% 0.00 in 100 W/m2
14:19 61.1 °F 56.9 °F 30.23 in Calm   5 mph 86% 0.00 in 113 W/m2
14:24 61.1 °F 57.1 °F 30.23 in Calm   5 mph 86.5% 0.00 in 114 W/m2
14:29 61.1 °F 57.2 °F 30.23 in NNE 0.2 mph 5 mph 87% 0.00 in 91 W/m2
14:34 61.1 °F 56.9 °F 30.23 in Calm   5 mph 86.2% 0.00 in 102 W/m2
14:39 61.1 °F 57.2 °F 30.23 in NNE 0.1 mph 2 mph 87% 0.00 in 104 W/m2
14:44 61.1 °F 57.2 °F 30.23 in NNE 0.3 mph 4 mph 87% 0.00 in 125 W/m2
14:49 61 °F 56.8 °F 30.23 in East 0.2 mph 4 mph 86.1% 0.00 in 156 W/m2
14:54 61 °F 57 °F 30.23 in Calm   4 mph 86.5% 0.00 in 141 W/m2
14:59 61.1 °F 57.2 °F 30.22 in ENE 1.1 mph 7 mph 87% 0.00 in 91 W/m2
15:04 61.1 °F 57.2 °F 30.22 in North 0.7 mph 7 mph 87% 0.00 in 90 W/m2
15:09 61.1 °F 57 °F 30.23 in ENE 0.2 mph 5 mph 86.5% 0.00 in 111 W/m2
15:14 61.1 °F 57.2 °F 30.23 in ENE 0.1 mph 5 mph 87% 0.00 in 134 W/m2
15:19 61.1 °F 57.2 °F 30.23 in ENE 0.1 mph 5 mph 87% 0.00 in 116 W/m2
15:24 61.1 °F 57.2 °F 30.23 in NNW 2.1 mph 10 mph 87% 0.00 in 111 W/m2
15:29 61 °F 56.9 °F 30.23 in NW 0.8 mph 10 mph 86.4% 0.00 in 121 W/m2
15:34 61.1 °F 57.2 °F 30.23 in Calm   10 mph 87% 0.00 in 111 W/m2
15:39 61.1 °F 57.2 °F 30.23 in NW 0.1 mph 4 mph 87% 0.00 in 91 W/m2
15:44 61.1 °F 57.2 °F 30.23 in NW 0.3 mph 4 mph 87% 0.00 in 97 W/m2
15:49 61.2 °F 57.3 °F 30.23 in NNW 0.3 mph 4 mph 87% 0.00 in 90 W/m2
15:54 61.2 °F 57.3 °F 30.23 in NNW 0.7 mph 5 mph 87.1% 0.00 in 91 W/m2
15:59 61.3 °F 57.6 °F 30.23 in Calm   5 mph 87.7% 0.00 in 90 W/m2
16:00 61.4 °F 57.8 °F 30.23 in Calm   5 mph 88% 0.00 in 83 W/m2
16:09 61.3 °F 57.4 °F 30.23 in North 1.9 mph 5 mph 87% 0.00 in 97 W/m2
16:14 61.3 °F 57.4 °F 30.23 in Calm   5 mph 87% 0.00 in 102 W/m2
16:19 61.3 °F 57.4 °F 30.23 in NNW 0.5 mph 5 mph 87% 0.00 in 95 W/m2
16:24 61.3 °F 57.4 °F 30.23 in NNW 0.8 mph 5 mph 87% 0.00 in 86 W/m2
16:29 61.4 °F 57.5 °F 30.23 in NNW 0.1 mph 5 mph 87% 0.00 in 90 W/m2
16:34 61.4 °F 57.5 °F 30.23 in NNW 0.5 mph 5 mph 87% 0.00 in 83 W/m2
16:39 61.4 °F 57.5 °F 30.23 in Calm   5 mph 87% 0.00 in 70 W/m2
16:44 61.4 °F 57.3 °F 30.23 in NNW 0.1 mph 5 mph 86.5% 0.00 in 63 W/m2
16:49 61.3 °F 57.4 °F 30.23 in North 0.1 mph 5 mph 87% 0.00 in 44 W/m2
16:54 61.2 °F 57.1 °F 30.24 in North 0.7 mph 6 mph 86.4% 0.00 in 51 W/m2
16:59 61.1 °F 56.9 °F 30.24 in NNE 0.1 mph 6 mph 86% 0.00 in 51 W/m2
17:04 61 °F 56.9 °F 30.24 in Calm   6 mph 86.2% 0.00 in 42 W/m2
17:09 61 °F 56.9 °F 30.24 in Calm     86.3% 0.00 in 39 W/m2
17:14 60.9 °F 57 °F 30.24 in Calm     87% 0.00 in 30 W/m2
17:19 60.9 °F 57 °F 30.24 in NNE 0.1 mph 3 mph 87% 0.00 in 28 W/m2
17:24 60.8 °F 56.9 °F 30.24 in Calm   3 mph 87% 0.00 in 28 W/m2
17:25 60.7 °F 56.8 °F 30.24 in NNE 1 mph 3 mph 87% 0.00 in 25 W/m2
17:30 60.7 °F 56.8 °F 30.24 in Calm   3 mph 87% 0.00 in 29 W/m2
18:00 60.4 °F 56.8 °F 30.25 in Calm   2 mph 88% 0.00 in 13 W/m2
18:30 60.2 °F 57 °F 30.25 in Calm     89% 0.00 in 3 W/m2
19:30 59.4 °F 56.8 °F 30.28 in Calm   4 mph 91% 0.00 in 0 W/m2
20:04 59.1 °F 56.5 °F 30.28 in Calm     91% 0.00 in 0 W/m2
20:09 59.1 °F 56.5 °F 30.29 in Calm     91% 0.00 in 0 W/m2
20:14 59.1 °F 56.5 °F 30.28 in Calm     91% 0.00 in 0 W/m2
20:19 59.1 °F 56.5 °F 30.29 in Calm   3 mph 91% 0.00 in 0 W/m2
20:24 59.1 °F 56.5 °F 30.29 in North 0.5 mph 4 mph 91% 0.00 in 0 W/m2
20:29 59.1 °F 56.5 °F 30.29 in North 0.1 mph 4 mph 91% 0.00 in 0 W/m2
20:34 59.1 °F 56.5 °F 30.29 in Calm   4 mph 91% 0.00 in 0 W/m2
20:39 59 °F 56.5 °F 30.29 in North 0.1 mph 3 mph 91.3% 0.00 in 0 W/m2
20:44 59 °F 56.7 °F 30.29 in North 0.1 mph 4 mph 92% 0.00 in 0 W/m2
20:49 59 °F 56.7 °F 30.30 in Calm   4 mph 92% 0.00 in 0 W/m2
20:54 58.9 °F 56.6 °F 30.30 in Calm   4 mph 92% 0.00 in 0 W/m2
20:59 58.9 °F 56.6 °F 30.30 in Calm   4 mph 92% 0.00 in 0 W/m2
21:04 58.9 °F 56.6 °F 30.30 in North 0.1 mph 4 mph 92% 0.00 in 0 W/m2
21:09 58.9 °F 56.6 °F 30.30 in Calm   2 mph 92% 0.00 in 0 W/m2
21:14 58.9 °F 56.6 °F 30.30 in North 0.1 mph 2 mph 92% 0.00 in 0 W/m2
21:19 58.8 °F 56.5 °F 30.30 in Calm   2 mph 92% 0.00 in 0 W/m2
21:24 58.8 °F 56.5 °F 30.30 in Calm   2 mph 92% 0.00 in 0 W/m2
21:29 58.8 °F 56.5 °F 30.30 in North 0.1 mph 4 mph 92% 0.00 in 0 W/m2
21:34 58.7 °F 56.4 °F 30.30 in North 0.4 mph 4 mph 92% 0.00 in 0 W/m2
21:39 58.7 °F 56.4 °F 30.30 in North 0.3 mph 4 mph 92% 0.00 in 0 W/m2
21:44 58.7 °F 56.4 °F 30.30 in Calm   4 mph 92% 0.00 in 0 W/m2
21:49 58.6 °F 56.3 °F 30.30 in Calm   4 mph 92% 0.00 in 0 W/m2
21:54 58.6 °F 56.5 °F 30.30 in North 0.1 mph 4 mph 92.5% 0.00 in 0 W/m2
21:59 58.6 °F 56.6 °F 30.30 in Calm   4 mph 93% 0.00 in 0 W/m2
22:04 58.6 °F 56.6 °F 30.30 in Calm   4 mph 93% 0.00 in 0 W/m2
22:09 58.6 °F 56.6 °F 30.30 in Calm     93% 0.00 in 0 W/m2
22:14 58.5 °F 56.5 °F 30.31 in Calm     93% 0.00 in 0 W/m2
22:19 58.5 °F 56.5 °F 30.31 in North 0.1 mph 2 mph 93% 0.00 in 0 W/m2
22:24 58.5 °F 56.5 °F 30.31 in Calm   2 mph 93% 0.00 in 0 W/m2
22:29 58.5 °F 56.5 °F 30.31 in Calm   2 mph 93% 0.00 in 0 W/m2
22:34 58.4 °F 56.4 °F 30.31 in Calm   2 mph 93% 0.00 in 0 W/m2
22:39 58.4 °F 56.4 °F 30.32 in Calm     93% 0.00 in 0 W/m2
22:44 58.3 °F 56.2 °F 30.32 in Calm     92.6% 0.00 in 0 W/m2
22:49 58.2 °F 55.9 °F 30.32 in Calm   1 mph 92% 0.00 in 0 W/m2
22:54 58.1 °F 55.8 °F 30.32 in Calm   1 mph 92% 0.00 in 0 W/m2
22:59 58 °F 55.7 °F 30.32 in Calm   1 mph 92.1% 0.00 in 0 W/m2
23:04 57.9 °F 55.9 °F 30.32 in Calm   1 mph 93% 0.00 in 0 W/m2
23:09 57.8 °F 55.8 °F 30.32 in Calm     93% 0.00 in 0 W/m2
23:14 57.7 °F 55.7 °F 30.32 in Calm     93% 0.00 in 0 W/m2
23:19 57.7 °F 55.7 °F 30.32 in Calm     93% 0.00 in 0 W/m2
23:24 57.6 °F 55.6 °F 30.32 in Calm     93% 0.00 in 0 W/m2
23:29 57.6 °F 55.6 °F 30.32 in Calm     93% 0.00 in 0 W/m2
23:34 57.6 °F 55.6 °F 30.32 in Calm     93% 0.00 in 0 W/m2
23:39 57.5 °F 55.5 °F 30.32 in Calm     93% 0.00 in 0 W/m2
23:44 57.5 °F 55.5 °F 30.32 in Calm     93% 0.00 in 0 W/m2
23:49 57.5 °F 55.5 °F 30.32 in Calm     93% 0.00 in 0 W/m2
23:54 57.5 °F 55.7 °F 30.33 in Calm     93.7% 0.00 in 0 W/m2
23:59 57.5 °F 55.8 °F 30.33 in Calm     94% 0.00 in 0 W/m2
Hartford County Weather
Compliments of Weather Underground - 2 mb